Time;durP1;ratioP1;P1;durP2;ratioP2;P2;SDS_P1;SDS_P2;PMS_P1;PMS_P2;Temp;Humidity;BMP_temperature;BMP_pressure;BME280_temperature;BME280_humidity;BME280_pressure;Samples;Min_cycle;Max_cycle;Signal;HPM_P1;HPM_P2
2022/06/29 00:00:17;;;;;;;40.78;22.65;;;;;;;16.56;100.00;95427.91;5029280;28;20053;-79
2022/06/29 00:03:00;;;;;;;48.40;23.42;;;;;;;16.54;100.00;95419.50;5029262;28;20600;-79
2022/06/29 00:05:27;;;;;;;42.63;21.75;;;;;;;16.53;100.00;95423.22;5010730;28;20041;-79
2022/06/29 00:07:54;;;;;;;44.67;23.52;;;;;;;16.48;100.00;95415.38;5030132;28;20056;-79
2022/06/29 00:10:20;;;;;;;42.88;22.10;;;;;;;16.63;100.00;95422.94;5024954;28;20470;-80
2022/06/29 00:12:47;;;;;;;42.47;24.30;;;;;;;16.69;100.00;95411.06;5012940;28;20053;-81
2022/06/29 00:15:14;;;;;;;44.80;22.23;;;;;;;16.57;100.00;95411.66;5029656;28;20545;-79
2022/06/29 00:17:39;;;;;;;47.58;23.35;;;;;;;16.49;100.00;95407.09;5030494;28;20076;-80
2022/06/29 00:20:07;;;;;;;41.47;22.40;;;;;;;16.53;100.00;95401.97;5027427;28;20043;-80
2022/06/29 00:22:32;;;;;;;44.28;24.92;;;;;;;16.52;100.00;95392.44;5012522;28;20049;-80
2022/06/29 00:24:58;;;;;;;41.70;22.05;;;;;;;16.61;100.00;95382.63;5030184;28;20140;-80
2022/06/29 00:27:25;;;;;;;40.25;22.67;;;;;;;16.65;100.00;95383.56;5029085;28;20034;-80
2022/06/29 00:29:51;;;;;;;40.78;22.08;;;;;;;16.62;100.00;95373.53;5026134;28;20530;-80
2022/06/29 00:32:16;;;;;;;47.45;22.38;;;;;;;16.51;100.00;95367.75;5026768;28;20045;-80
2022/06/29 00:34:43;;;;;;;42.50;22.63;;;;;;;16.67;100.00;95378.72;5012465;28;20045;-80
2022/06/29 00:37:08;;;;;;;41.30;21.27;;;;;;;16.61;100.00;95366.69;5026597;28;20037;-80
2022/06/29 00:39:34;;;;;;;39.28;20.70;;;;;;;16.54;100.00;95361.03;5025690;28;20200;-81
2022/06/29 00:42:00;;;;;;;40.22;21.17;;;;;;;16.62;100.00;95368.22;5028475;28;20042;-81
2022/06/29 00:44:26;;;;;;;39.45;21.10;;;;;;;16.56;100.00;95366.81;5029812;28;20049;-80
2022/06/29 00:46:57;;;;;;;40.00;21.67;;;;;;;16.55;100.00;95367.91;5029463;28;20033;-80
2022/06/29 00:49:24;;;;;;;41.45;19.30;;;;;;;16.58;100.00;95356.69;5023082;28;20041;-80
2022/06/29 00:52:07;;;;;;;42.08;21.50;;;;;;;16.64;100.00;95350.13;5028898;28;20664;-80
2022/06/29 00:54:45;;;;;;;42.47;20.83;;;;;;;16.62;100.00;95346.97;5011905;28;20132;-78
2022/06/29 00:57:18;;;;;;;41.97;20.15;;;;;;;16.58;100.00;95340.75;5021587;28;20038;-80
2022/06/29 00:59:49;;;;;;;38.35;21.10;;;;;;;16.51;100.00;95340.44;5027924;28;20038;-79
2022/06/29 01:02:17;;;;;;;38.55;20.60;;;;;;;16.55;100.00;95336.03;5029399;28;20041;-80
2022/06/29 01:04:44;;;;;;;42.50;21.73;;;;;;;16.60;100.00;95346.50;5011269;28;20051;-81
2022/06/29 01:07:18;;;;;;;38.67;20.77;;;;;;;16.54;100.00;95347.78;5024533;28;20048;-80
2022/06/29 01:09:44;;;;;;;39.03;19.88;;;;;;;16.67;100.00;95357.47;5024029;28;20048;-80
2022/06/29 01:12:11;;;;;;;35.60;19.40;;;;;;;16.63;100.00;95385.72;5011714;28;20045;-79
2022/06/29 01:14:37;;;;;;;42.03;20.98;;;;;;;16.58;100.00;95393.88;5024769;28;20686;-80
2022/06/29 01:17:03;;;;;;;40.63;19.35;;;;;;;16.55;100.00;95391.81;5028617;28;20037;-80
2022/06/29 01:19:29;;;;;;;39.03;20.73;;;;;;;16.52;100.00;95403.06;5009732;28;20038;-79
2022/06/29 01:21:58;;;;;;;43.90;21.38;;;;;;;16.41;100.00;95390.06;5028963;28;20088;-80
2022/06/29 01:24:23;;;;;;;37.95;20.42;;;;;;;16.33;100.00;95377.56;5011654;28;20033;-79
2022/06/29 01:26:49;;;;;;;44.45;20.98;;;;;;;16.46;100.00;95391.78;5029221;28;20674;-79
2022/06/29 01:29:16;;;;;;;40.60;20.52;;;;;;;16.40;100.00;95371.78;5002460;28;20042;-80
2022/06/29 01:31:42;;;;;;;44.95;20.98;;;;;;;16.35;100.00;95359.44;5028842;28;20060;-79
2022/06/29 01:34:08;;;;;;;43.30;20.75;;;;;;;16.43;100.00;95345.41;5011053;28;20152;-79
2022/06/29 01:36:34;;;;;;;43.53;19.80;;;;;;;16.48;100.00;95341.03;5028030;28;20037;-80
2022/06/29 01:38:59;;;;;;;48.15;21.00;;;;;;;16.43;100.00;95339.31;5026055;28;20037;-79
2022/06/29 01:41:24;;;;;;;34.03;18.50;;;;;;;16.39;100.00;95323.22;5009510;28;20072;-80
2022/06/29 01:43:50;;;;;;;37.30;18.15;;;;;;;16.40;100.00;95324.00;5028836;28;20044;-80
2022/06/29 01:46:16;;;;;;;37.55;19.35;;;;;;;16.45;100.00;95321.97;5028612;28;20029;-80
2022/06/29 01:48:41;;;;;;;41.15;19.35;;;;;;;16.42;100.00;95314.63;5026993;28;20495;-79
2022/06/29 01:51:07;;;;;;;40.40;18.00;;;;;;;16.43;100.00;95308.22;5028774;28;20045;-78
2022/06/29 01:53:32;;;;;;;36.70;18.33;;;;;;;16.41;100.00;95309.63;5028645;28;20061;-78
2022/06/29 01:55:58;;;;;;;36.05;18.25;;;;;;;16.32;100.00;95291.03;5028463;28;20072;-80
2022/06/29 01:58:23;;;;;;;36.03;16.85;;;;;;;16.21;100.00;95279.16;5024654;28;20464;-78
2022/06/29 02:00:49;;;;;;;35.88;17.05;;;;;;;16.42;100.00;95281.97;5028944;28;20042;-78
2022/06/29 02:03:14;;;;;;;31.42;16.67;;;;;;;16.50;100.00;95286.50;5028133;28;20072;-78
2022/06/29 02:05:40;;;;;;;31.23;16.27;;;;;;;16.54;100.00;95289.31;5011368;28;20420;-78
2022/06/29 02:08:06;;;;;;;35.95;16.45;;;;;;;16.39;100.00;95274.63;5010205;28;20037;-78
2022/06/29 02:10:31;;;;;;;31.63;16.33;;;;;;;16.49;100.00;95302.75;5019274;28;20046;-79
2022/06/29 02:12:57;;;;;;;33.83;16.73;;;;;;;16.60;100.00;95349.16;5012823;28;20481;-79
2022/06/29 02:15:25;;;;;;;37.67;16.35;;;;;;;16.54;100.00;95383.06;5010556;28;20068;-79
2022/06/29 02:17:51;;;;;;;41.90;17.20;;;;;;;16.42;100.00;95394.31;5027890;28;20337;-78
2022/06/29 02:20:17;;;;;;;36.30;17.17;;;;;;;16.36;100.00;95361.00;5024389;28;20050;-79
2022/06/29 02:22:43;;;;;;;33.55;17.38;;;;;;;16.32;100.00;95343.34;5014436;28;20041;-80
2022/06/29 02:25:09;;;;;;;36.60;17.88;;;;;;;16.40;100.00;95356.63;5027806;28;20048;-79
2022/06/29 02:27:39;;;;;;;37.00;17.17;;;;;;;16.48;100.00;95362.28;5012260;28;20044;-80
2022/06/29 02:30:05;;;;;;;38.17;18.23;;;;;;;16.34;100.00;95352.56;5009039;28;20045;-79
2022/06/29 02:35:15;;;;;;;37.83;18.02;;;;;;;16.30;100.00;95346.31;5030998;28;20494;-79
2022/06/29 02:37:40;;;;;;;35.45;17.67;;;;;;;16.23;100.00;95314.13;5012941;28;20045;-79
2022/06/29 02:40:06;;;;;;;38.38;18.55;;;;;;;16.23;100.00;95308.81;5030126;28;20033;-79
2022/06/29 02:42:32;;;;;;;40.08;18.13;;;;;;;16.21;100.00;95314.44;5013946;28;20056;-78
2022/06/29 02:44:58;;;;;;;37.47;18.35;;;;;;;16.35;100.00;95314.31;5031390;28;20059;-79
2022/06/29 02:47:23;;;;;;;36.70;18.50;;;;;;;16.24;100.00;95294.47;5013909;28;20476;-78
2022/06/29 02:49:49;;;;;;;33.42;17.98;;;;;;;16.25;100.00;95290.72;5027116;28;20037;-79
2022/06/29 02:52:14;;;;;;;40.75;18.35;;;;;;;16.40;100.00;95298.22;5032062;28;20049;-78
2022/06/29 02:54:39;;;;;;;39.55;18.83;;;;;;;16.39;100.00;95311.81;5031439;28;20033;-80
2022/06/29 02:57:05;;;;;;;38.95;18.88;;;;;;;16.35;100.00;95306.34;5013485;28;20092;-79
2022/06/29 02:59:30;;;;;;;36.85;17.83;;;;;;;16.18;100.00;95306.31;5013240;28;20068;-80
2022/06/29 03:01:56;;;;;;;36.72;18.08;;;;;;;16.23;100.00;95306.97;5032053;28;20495;-79
2022/06/29 03:04:22;;;;;;;37.80;18.73;;;;;;;16.29;100.00;95318.19;5013855;28;20403;-79
2022/06/29 03:06:47;;;;;;;31.52;16.90;;;;;;;16.27;100.00;95312.41;5025243;28;20033;-79
2022/06/29 03:09:13;;;;;;;29.80;15.82;;;;;;;16.23;100.00;95314.13;5029612;28;20497;-79
2022/06/29 03:11:38;;;;;;;30.48;17.25;;;;;;;16.27;100.00;95317.72;5027176;28;20050;-79
2022/06/29 03:14:04;;;;;;;31.65;16.88;;;;;;;16.32;100.00;95322.91;5031358;28;20495;-80
2022/06/29 03:16:29;;;;;;;32.47;16.13;;;;;;;16.32;100.00;95336.19;5031188;28;20037;-79
2022/06/29 03:18:55;;;;;;;31.05;16.88;;;;;;;16.29;100.00;95336.78;5028417;28;20045;-79
2022/06/29 03:21:20;;;;;;;34.58;16.92;;;;;;;16.21;100.00;95332.25;5031526;28;20045;-80
2022/06/29 03:23:46;;;;;;;32.40;17.20;;;;;;;16.18;100.00;95327.56;5031562;28;20038;-80
2022/06/29 03:26:12;;;;;;;34.50;17.90;;;;;;;16.20;100.00;95314.75;5013611;28;20042;-79
2022/06/29 03:28:37;;;;;;;31.67;17.10;;;;;;;16.31;100.00;95309.94;5025094;28;20056;-79
2022/06/29 03:31:04;;;;;;;34.00;16.60;;;;;;;16.27;100.00;95315.06;5031145;28;20033;-79
2022/06/29 03:33:29;;;;;;;39.95;17.98;;;;;;;16.44;100.00;95322.28;5013455;28;20048;-79
2022/06/29 03:35:55;;;;;;;33.50;17.10;;;;;;;16.51;100.00;95341.19;5023585;28;20045;-79
2022/06/29 03:38:20;;;;;;;32.88;17.08;;;;;;;16.50;100.00;95344.16;5030538;28;20091;-79
2022/06/29 03:40:46;;;;;;;35.22;17.15;;;;;;;16.43;100.00;95344.63;5028223;28;20037;-79
2022/06/29 03:43:12;;;;;;;35.17;16.80;;;;;;;16.35;100.00;95338.22;5030572;28;20037;-80
2022/06/29 03:45:38;;;;;;;42.78;19.92;;;;;;;16.30;100.00;95346.31;5031136;28;20128;-80
2022/06/29 03:48:04;;;;;;;37.88;17.42;;;;;;;16.37;100.00;95346.63;5029010;28;20042;-79
2022/06/29 03:50:29;;;;;;;35.00;18.38;;;;;;;16.45;100.00;95351.19;5030920;28;20096;-80
2022/06/29 03:52:55;;;;;;;34.80;17.35;;;;;;;16.43;100.00;95364.00;5030495;28;20107;-80
2022/06/29 03:55:20;;;;;;;35.80;17.25;;;;;;;16.41;100.00;95366.16;5014731;28;20080;-79
2022/06/29 03:57:46;;;;;;;30.08;16.35;;;;;;;16.37;100.00;95357.25;5035808;28;20056;-79
2022/06/29 04:00:12;;;;;;;36.00;17.00;;;;;;;16.34;100.00;95363.19;5030014;28;20044;-79
2022/06/29 04:02:38;;;;;;;29.38;16.67;;;;;;;16.28;100.00;95359.13;5030575;28;20041;-78
2022/06/29 04:05:04;;;;;;;31.65;16.33;;;;;;;16.24;100.00;95368.78;5011316;28;20042;-79
2022/06/29 04:07:31;;;;;;;32.20;17.20;;;;;;;16.19;100.00;95355.66;5026240;28;20041;-80
2022/06/29 04:09:59;;;;;;;33.03;16.63;;;;;;;16.18;100.00;95359.41;5009163;28;20041;-79
2022/06/29 04:12:33;;;;;;;34.05;16.13;;;;;;;16.15;100.00;95360.81;5010315;28;20049;-79
2022/06/29 04:14:59;;;;;;;29.50;15.85;;;;;;;16.16;100.00;95364.25;5029553;28;20487;-79
2022/06/29 04:17:25;;;;;;;32.17;16.27;;;;;;;16.19;100.00;95355.66;5030150;28;20065;-79
2022/06/29 04:19:53;;;;;;;23.33;13.82;;;;;;;16.19;100.00;95355.66;5028506;28;20052;-79
2022/06/29 04:22:20;;;;;;;30.55;14.85;;;;;;;16.21;100.00;95356.13;5030531;28;20049;-80
2022/06/29 04:24:47;;;;;;;31.45;15.02;;;;;;;16.17;100.00;95352.53;5013064;28;20732;-80
2022/06/29 04:27:13;;;;;;;33.20;15.77;;;;;;;16.25;100.00;95349.13;5010548;28;20045;-79
2022/06/29 04:29:39;;;;;;;31.45;14.32;;;;;;;16.25;100.00;95354.44;5011592;28;20426;-80
2022/06/29 04:32:05;;;;;;;28.67;14.43;;;;;;;16.27;100.00;95368.19;5012116;28;20038;-79
2022/06/29 04:34:30;;;;;;;28.83;14.40;;;;;;;16.22;100.00;95369.09;5025661;28;20524;-80
2022/06/29 04:36:56;;;;;;;31.80;15.88;;;;;;;16.26;100.00;95366.59;5029896;28;20045;-79
2022/06/29 04:39:22;;;;;;;27.80;14.65;;;;;;;16.31;100.00;95374.44;5028254;28;20435;-80
2022/06/29 04:41:48;;;;;;;32.72;15.43;;;;;;;16.20;100.00;95362.53;5029993;28;20053;-79
2022/06/29 04:44:14;;;;;;;30.60;14.93;;;;;;;16.25;100.00;95365.06;5029804;28;20048;-79
2022/06/29 04:46:39;;;;;;;30.33;15.30;;;;;;;16.23;100.00;95356.59;5030244;28;20499;-81
2022/06/29 04:49:05;;;;;;;32.53;16.02;;;;;;;16.27;100.00;95357.56;5027197;28;20071;-80
2022/06/29 04:51:32;;;;;;;33.75;16.25;;;;;;;16.36;100.00;95354.91;5010776;28;20124;-81
2022/06/29 04:53:59;;;;;;;31.35;15.40;;;;;;;16.34;100.00;95357.88;5029289;28;20072;-79
2022/06/29 04:56:30;;;;;;;32.33;15.70;;;;;;;16.32;100.00;95338.84;5026007;28;20114;-78
2022/06/29 04:58:57;;;;;;;31.25;15.25;;;;;;;16.35;100.00;95332.91;5011372;28;20048;-80
2022/06/29 05:01:24;;;;;;;34.78;15.60;;;;;;;16.40;100.00;95330.06;5011398;28;20038;-79
2022/06/29 05:03:51;;;;;;;30.98;15.68;;;;;;;16.41;100.00;95331.66;5023709;28;20029;-80
2022/06/29 05:06:17;;;;;;;31.77;14.77;;;;;;;16.40;100.00;95326.66;5029543;28;20474;-81
2022/06/29 05:08:43;;;;;;;24.67;14.23;;;;;;;16.43;100.00;95342.75;5010504;28;20033;-80
2022/06/29 05:11:08;;;;;;;29.10;13.93;;;;;;;16.43;100.00;95345.41;5010000;28;20045;-80
2022/06/29 05:13:34;;;;;;;31.85;15.52;;;;;;;16.42;100.00;95354.47;5009060;28;20048;-80
2022/06/29 05:16:00;;;;;;;27.77;14.98;;;;;;;16.36;100.00;95350.38;5012392;28;20114;-80
2022/06/29 05:18:26;;;;;;;26.20;14.93;;;;;;;16.45;100.00;95356.50;5010913;28;20041;-80
2022/06/29 05:20:52;;;;;;;28.67;15.02;;;;;;;16.42;100.00;95341.19;5025580;28;20107;-80
2022/06/29 05:23:18;;;;;;;28.20;15.00;;;;;;;16.57;100.00;95341.81;5028972;28;20041;-79
2022/06/29 05:25:44;;;;;;;26.38;14.85;;;;;;;16.52;100.00;95328.69;5004471;28;20111;-79
2022/06/29 05:28:11;;;;;;;28.10;15.82;;;;;;;16.59;100.00;95347.59;5026736;28;20042;-80
2022/06/29 05:30:38;;;;;;;29.42;15.07;;;;;;;16.60;100.00;95338.53;5028476;28;20049;-80
2022/06/29 05:33:05;;;;;;;30.05;15.27;;;;;;;16.67;100.00;95336.19;5010989;28;20446;-80
2022/06/29 05:35:33;;;;;;;44.53;16.10;;;;;;;16.71;100.00;95334.50;5007561;28;20037;-80
2022/06/29 05:38:00;;;;;;;28.73;16.48;;;;;;;16.74;100.00;95323.22;5027988;28;20086;-80
2022/06/29 05:40:26;;;;;;;34.47;16.10;;;;;;;16.73;100.00;95321.66;5020958;28;20555;-80
2022/06/29 05:42:52;;;;;;;37.25;17.15;;;;;;;16.75;100.00;95319.50;5031442;28;20048;-80
2022/06/29 05:45:18;;;;;;;35.03;17.90;;;;;;;16.92;100.00;95317.94;5010350;28;20462;-79
2022/06/29 05:47:43;;;;;;;33.22;18.05;;;;;;;16.95;100.00;95314.63;5010459;28;20033;-79
2022/06/29 05:50:10;;;;;;;34.95;18.17;;;;;;;17.04;100.00;95309.31;5022010;28;20046;-80
2022/06/29 05:52:36;;;;;;;35.65;19.83;;;;;;;17.03;100.00;95303.22;5029310;28;20041;-79
2022/06/29 05:55:03;;;;;;;33.47;18.58;;;;;;;17.18;100.00;95303.81;5028316;28;20511;-79
2022/06/29 05:57:29;;;;;;;32.10;18.88;;;;;;;17.25;100.00;95315.53;5027601;28;20042;-81
2022/06/29 05:59:54;;;;;;;35.67;18.15;;;;;;;17.38;100.00;95319.09;5009793;28;20511;-84
2022/06/29 06:02:20;;;;;;;35.70;17.92;;;;;;;17.38;100.00;95324.41;5014338;28;20057;-85
2022/06/29 06:04:46;;;;;;;34.03;17.92;;;;;;;17.35;100.00;95319.72;5013429;28;20041;-83
2022/06/29 06:07:11;;;;;;;33.67;18.77;;;;;;;17.34;100.00;95326.16;5012068;28;20042;-82
2022/06/29 06:09:36;;;;;;;33.28;18.50;;;;;;;17.47;100.00;95321.75;5008475;28;20048;-81
2022/06/29 06:12:02;;;;;;;34.00;18.45;;;;;;;17.59;100.00;95334.38;5027117;28;20050;-78
2022/06/29 06:14:28;;;;;;;29.65;15.82;;;;;;;17.64;100.00;95336.84;5031205;28;20049;-82
2022/06/29 06:16:53;;;;;;;38.30;18.83;;;;;;;17.63;100.00;95335.31;5013022;28;20034;-83
2022/06/29 06:19:19;;;;;;;33.38;18.73;;;;;;;17.76;100.00;95334.31;5030105;28;20045;-81
2022/06/29 06:21:44;;;;;;;32.38;18.33;;;;;;;17.80;100.00;95321.94;5031315;28;20038;-86
2022/06/29 06:24:10;;;;;;;37.70;18.77;;;;;;;17.77;100.00;95317.25;5015045;28;20045;-82
2022/06/29 06:26:36;;;;;;;34.40;18.10;;;;;;;17.67;100.00;95314.97;5012278;28;20042;-79
2022/06/29 06:29:02;;;;;;;30.92;18.25;;;;;;;17.91;100.00;95334.91;5028089;28;20048;-82
2022/06/29 06:31:27;;;;;;;31.45;18.40;;;;;;;17.93;100.00;95343.34;5018176;28;20075;-80
2022/06/29 06:33:53;;;;;;;32.85;18.05;;;;;;;17.79;100.00;95339.00;5033564;28;20116;-84
2022/06/29 06:36:19;;;;;;;35.33;19.27;;;;;;;17.78;100.00;95348.06;5029313;28;20033;-82
2022/06/29 06:38:44;;;;;;;35.25;18.70;;;;;;;17.70;100.00;95354.22;5025858;28;20099;-81
2022/06/29 06:41:22;;;;;;;37.95;19.95;;;;;;;17.67;100.00;95357.53;5012893;28;20042;-83
2022/06/29 06:43:51;;;;;;;42.05;20.75;;;;;;;17.74;100.00;95368.47;5011503;28;20423;-81
2022/06/29 06:46:18;;;;;;;33.67;19.23;;;;;;;17.65;100.00;95375.69;5031266;28;20167;-83
2022/06/29 06:48:44;;;;;;;37.67;20.23;;;;;;;17.76;100.00;95387.53;5026802;28;20045;-84
2022/06/29 06:51:10;;;;;;;39.10;20.42;;;;;;;17.75;100.00;95385.97;5013259;28;20042;-87
2022/06/29 06:53:36;;;;;;;36.08;19.55;;;;;;;17.71;100.00;95385.03;5013764;28;20048;-86
2022/06/29 06:56:02;;;;;;;34.28;19.02;;;;;;;17.82;100.00;95380.16;5030638;28;20045;-80
2022/06/29 06:58:27;;;;;;;35.78;20.42;;;;;;;17.91;100.00;95390.81;5024414;28;20647;-80
2022/06/29 07:00:53;;;;;;;33.75;19.92;;;;;;;17.89;100.00;95395.66;5013499;28;20495;-79
2022/06/29 07:03:18;;;;;;;40.78;20.90;;;;;;;17.81;100.00;95387.38;5027583;28;20033;-82
2022/06/29 07:05:43;;;;;;;35.33;20.00;;;;;;;17.88;100.00;95399.41;5031344;28;20458;-79
2022/06/29 07:08:09;;;;;;;36.17;20.23;;;;;;;17.79;100.00;95397.56;5026794;28;20504;-81
2022/06/29 07:10:35;;;;;;;36.40;19.75;;;;;;;17.89;100.00;95385.78;5028962;28;20061;-84
2022/06/29 07:13:00;;;;;;;35.95;19.52;;;;;;;18.18;100.00;95402.91;5013323;28;20037;-80
2022/06/29 07:15:26;;;;;;;32.88;19.50;;;;;;;18.15;100.00;95409.66;5012676;28;20070;-79
2022/06/29 07:17:51;;;;;;;34.63;19.15;;;;;;;18.12;100.00;95404.97;5024197;28;20411;-80
2022/06/29 07:20:16;;;;;;;35.42;18.42;;;;;;;18.17;100.00;95401.34;5012638;28;20049;-79
2022/06/29 07:22:42;;;;;;;34.38;20.27;;;;;;;18.18;100.00;95401.03;5030598;28;20093;-79
2022/06/29 07:25:08;;;;;;;36.63;18.27;;;;;;;18.34;100.00;95395.16;5007852;28;20167;-78
2022/06/29 07:27:33;;;;;;;37.90;18.80;;;;;;;18.46;100.00;95402.47;5011727;28;20072;-80
2022/06/29 07:29:59;;;;;;;31.10;18.58;;;;;;;18.41;100.00;95398.09;5030511;28;20156;-80
2022/06/29 07:32:25;;;;;;;32.78;19.20;;;;;;;18.41;100.00;95395.44;5013103;28;20045;-80
2022/06/29 07:34:51;;;;;;;34.63;19.65;;;;;;;18.53;100.00;95402.72;5030582;28;20073;-79
2022/06/29 07:37:16;;;;;;;29.88;17.80;;;;;;;18.47;100.00;95396.81;5023195;28;20044;-80
2022/06/29 07:39:42;;;;;;;32.03;18.40;;;;;;;18.55;100.00;95394.41;5028186;28;20042;-79
2022/06/29 07:42:07;;;;;;;31.17;18.55;;;;;;;18.69;100.00;95390.41;5012987;28;20071;-83
2022/06/29 07:44:33;;;;;;;31.85;17.20;;;;;;;18.87;100.00;95385.75;5014423;28;20122;-78
2022/06/29 07:46:58;;;;;;;31.40;18.58;;;;;;;18.80;100.00;95384.69;5030561;28;20041;-79
2022/06/29 07:49:24;;;;;;;27.20;17.15;;;;;;;18.88;100.00;95391.88;5027254;28;20049;-79
2022/06/29 07:51:52;;;;;;;28.27;17.48;;;;;;;18.94;100.00;95381.81;5030853;28;20072;-80
2022/06/29 07:54:17;;;;;;;32.63;16.85;;;;;;;18.83;100.00;95368.84;5025590;28;20545;-80
2022/06/29 07:56:43;;;;;;;32.63;16.98;;;;;;;18.73;100.00;95353.22;5020755;28;20124;-84
2022/06/29 07:59:08;;;;;;;32.22;16.85;;;;;;;18.57;100.00;95344.25;5011040;28;20113;-85
2022/06/29 08:01:34;;;;;;;28.40;15.95;;;;;;;18.78;100.00;95350.38;5027210;28;20046;-78
2022/06/29 08:03:59;;;;;;;31.05;17.35;;;;;;;18.76;100.00;95346.47;5027216;28;20042;-78
2022/06/29 08:06:25;;;;;;;32.97;16.70;;;;;;;18.78;100.00;95334.38;5027433;28;20053;-80
2022/06/29 08:08:51;;;;;;;30.98;17.40;;;;;;;18.96;100.00;95334.25;5030918;28;20042;-82
2022/06/29 08:11:17;;;;;;;25.45;15.95;;;;;;;19.01;100.00;95336.72;5012107;28;20052;-84
2022/06/29 08:13:43;;;;;;;24.58;16.23;;;;;;;19.00;100.00;95346.59;5020265;28;20038;-84
2022/06/29 08:16:08;;;;;;;25.67;15.38;;;;;;;19.13;100.00;95350.09;5030122;28;21744;-83
2022/06/29 08:18:34;;;;;;;32.75;16.88;;;;;;;19.00;100.00;95359.16;5027467;28;20144;-83
2022/06/29 08:21:01;;;;;;;28.08;16.50;;;;;;;19.10;100.00;95366.75;5013383;28;20041;-84
2022/06/29 08:23:26;;;;;;;27.85;16.55;;;;;;;19.11;100.00;95373.66;5026005;28;20055;-78
2022/06/29 08:25:52;;;;;;;28.13;15.50;;;;;;;19.16;100.00;95365.44;5030442;28;20502;-82
2022/06/29 08:28:18;;;;;;;22.45;15.40;;;;;;;19.20;100.00;95373.56;5026615;28;20049;-82
2022/06/29 08:30:44;;;;;;;28.00;16.13;;;;;;;18.97;100.00;95376.59;5028874;28;20052;-85
2022/06/29 08:33:29;;;;;;;25.63;14.02;;;;;;;19.06;100.00;95365.84;5032263;28;20045;-89
2022/06/29 08:36:00;;;;;;;26.75;16.08;;;;;;;18.98;100.00;95358.72;5014888;28;20060;-86
2022/06/29 08:38:37;;;;;;;29.42;14.73;;;;;;;18.83;100.00;95352.84;5028988;28;20037;-85
2022/06/29 08:41:10;;;;;;;32.28;15.00;;;;;;;18.93;100.00;95362.34;5028203;28;20034;-85
2022/06/29 08:44:29;;;;;;;24.80;15.02;;;;;;;18.92;100.00;95354.69;5030962;28;20045;-87
2022/06/29 08:47:25;;;;;;;23.50;15.13;;;;;;;18.91;100.00;95348.56;4988255;28;20056;-79
2022/06/29 08:49:50;;;;;;;20.85;13.68;;;;;;;19.26;100.00;95377.59;5028814;28;20037;-83
2022/06/29 08:52:16;;;;;;;24.50;15.10;;;;;;;19.33;100.00;95369.06;5012853;28;20038;-77
2022/06/29 08:54:44;;;;;;;22.60;14.32;;;;;;;19.36;100.00;95374.50;5029066;28;20037;-76
2022/06/29 08:57:09;;;;;;;23.40;14.20;;;;;;;19.30;100.00;95369.72;5028629;28;20048;-83
2022/06/29 08:59:35;;;;;;;25.52;14.85;;;;;;;19.51;100.00;95365.13;5029998;28;20049;-79
2022/06/29 09:02:02;;;;;;;23.75;14.82;;;;;;;19.77;100.00;95368.59;5012391;28;20041;-82
2022/06/29 09:04:28;;;;;;;20.02;13.32;;;;;;;19.72;100.00;95356.25;5027408;28;20046;-83
2022/06/29 09:06:55;;;;;;;21.67;13.57;;;;;;;19.78;100.00;95359.50;5031239;28;20041;-83
2022/06/29 09:09:21;;;;;;;20.70;13.48;;;;;;;19.76;100.00;95362.50;5033046;28;20029;-83
2022/06/29 09:11:50;;;;;;;20.52;12.80;;;;;;;19.51;100.00;95357.13;5006664;28;20090;-81
2022/06/29 09:14:17;;;;;;;24.52;14.23;;;;;;;19.64;100.00;95362.47;5033342;28;20483;-80
2022/06/29 09:16:55;;;;;;;22.92;13.45;;;;;;;19.52;100.00;95361.34;5031357;28;20040;-80
2022/06/29 09:19:26;;;;;;;19.33;12.68;;;;;;;19.44;100.00;95358.75;5033187;28;20406;-80
2022/06/29 09:21:54;;;;;;;19.33;12.73;;;;;;;19.31;100.00;95353.38;5026312;28;20037;-81
2022/06/29 09:24:31;;;;;;;21.15;14.25;;;;;;;19.34;100.00;95359.97;5032585;28;20045;-82
2022/06/29 09:27:00;;;;;;;21.60;13.98;;;;;;;19.38;100.00;95345.63;5009312;28;20049;-81
2022/06/29 09:29:29;;;;;;;20.85;13.93;;;;;;;19.52;100.00;95358.69;5028638;28;20053;-81
2022/06/29 09:32:00;;;;;;;20.80;14.27;;;;;;;19.52;100.00;95366.69;5028701;28;20045;-81
2022/06/29 09:34:28;;;;;;;22.92;12.13;;;;;;;19.58;100.00;95363.78;5009925;28;20037;-80
2022/06/29 09:36:58;;;;;;;19.42;11.95;;;;;;;19.60;100.00;95361.59;5024455;28;20439;-81
2022/06/29 09:39:38;;;;;;;19.63;12.95;;;;;;;19.61;100.00;95368.47;5023175;28;20507;-80
2022/06/29 09:42:12;;;;;;;19.08;12.23;;;;;;;19.63;100.00;95363.59;5027588;28;20041;-80
2022/06/29 09:44:38;;;;;;;16.17;11.63;;;;;;;19.67;100.00;95361.81;5029100;28;20073;-80
2022/06/29 09:47:09;;;;;;;22.20;12.63;;;;;;;19.84;100.00;95369.66;5010290;28;20068;-80
2022/06/29 09:49:39;;;;;;;21.63;12.55;;;;;;;20.01;100.00;95362.53;5024353;28;20670;-80
2022/06/29 09:52:06;;;;;;;19.38;11.00;;;;;;;20.25;100.00;95365.22;5028245;28;20485;-80
2022/06/29 09:54:54;;;;;;;20.05;11.32;;;;;;;20.46;100.00;95358.97;5004740;28;20045;-80
2022/06/29 09:57:22;;;;;;;16.77;11.00;;;;;;;20.60;100.00;95358.59;5011386;28;20045;-81
2022/06/29 10:02:43;;;;;;;18.27;11.73;;;;;;;20.97;100.00;95360.44;5016943;28;20057;-81
2022/06/29 10:05:23;;;;;;;15.93;10.52;;;;;;;21.20;100.00;95356.09;5010167;28;20666;-80
2022/06/29 10:07:51;;;;;;;16.83;10.93;;;;;;;21.46;100.00;95349.50;5025202;28;20049;-81
2022/06/29 10:10:19;;;;;;;17.38;10.05;;;;;;;21.75;100.00;95350.25;5009630;28;20478;-81
2022/06/29 10:16:00;;;;;;;15.60;10.20;;;;;;;21.80;100.00;95347.34;5026071;28;20715;-80
2022/06/29 10:18:47;;;;;;;17.83;10.65;;;;;;;21.89;98.76;95349.84;5011189;28;20664;-79
2022/06/29 10:21:17;;;;;;;15.00;10.18;;;;;;;22.27;100.00;95351.88;5027690;28;20040;-81
2022/06/29 10:23:49;;;;;;;14.95;10.07;;;;;;;21.98;100.00;95343.19;5010244;28;20056;-78
2022/06/29 10:26:31;;;;;;;14.68;9.68;;;;;;;21.79;98.11;95345.78;5026494;28;20052;-78
2022/06/29 10:29:19;;;;;;;14.90;9.63;;;;;;;21.87;100.00;95347.50;5010657;28;20497;-77
2022/06/29 10:31:51;;;;;;;13.82;8.73;;;;;;;21.91;92.30;95359.09;5009823;28;20505;-77
2022/06/29 10:34:32;;;;;;;13.10;9.15;;;;;;;21.83;100.00;95352.00;5007934;28;20037;-78
2022/06/29 10:36:59;;;;;;;14.52;9.48;;;;;;;21.97;95.41;95352.34;5013318;28;20045;-78
2022/06/29 10:39:24;;;;;;;12.18;8.45;;;;;;;22.25;95.49;95350.66;5025856;28;20034;-79
2022/06/29 10:45:01;;;;;;;13.98;9.63;;;;;;;22.09;90.49;95348.00;5026782;28;20041;-79
2022/06/29 10:47:27;;;;;;;17.90;8.68;;;;;;;22.10;91.43;95341.53;5026905;28;20045;-77
2022/06/29 10:50:14;;;;;;;16.63;8.65;;;;;;;22.16;90.08;95348.19;5028407;28;20492;-77
2022/06/29 10:52:41;;;;;;;17.75;8.95;;;;;;;22.23;91.08;95342.22;5027142;28;20041;-77
2022/06/29 10:55:07;;;;;;;13.27;8.55;;;;;;;22.61;90.47;95338.88;5031047;28;20442;-77
2022/06/29 10:57:34;;;;;;;12.88;8.00;;;;;;;22.91;90.06;95338.31;5031198;28;20048;-78
2022/06/29 11:00:04;;;;;;;14.05;7.80;;;;;;;23.04;88.73;95325.53;5023749;28;20699;-77
2022/06/29 11:02:29;;;;;;;14.10;7.85;;;;;;;22.96;88.08;95319.25;5031631;28;20045;-79
2022/06/29 11:04:55;;;;;;;11.65;8.35;;;;;;;22.96;83.26;95329.22;5030320;28;20065;-77
2022/06/29 11:12:51;;;;;;;15.27;7.22;;;;;;;24.03;80.93;95314.25;5031611;28;20038;-77
2022/06/29 11:15:42;;;;;;;10.00;6.93;;;;;;;24.17;76.13;95312.91;5032669;28;20048;-76
2022/06/29 11:18:17;;;;;;;10.77;7.80;;;;;;;23.78;79.35;95302.31;5028267;28;20061;-77
2022/06/29 11:20:45;;;;;;;10.15;7.57;;;;;;;24.27;77.09;95296.16;5011836;28;20045;-77
2022/06/29 11:23:12;;;;;;;11.85;7.43;;;;;;;24.59;80.14;95293.09;5032887;28;20041;-80
2022/06/29 11:25:46;;;;;;;9.75;6.50;;;;;;;25.52;73.83;95289.94;5013488;28;20041;-78
2022/06/29 11:28:19;;;;;;;17.15;7.00;;;;;;;26.18;70.36;95281.22;5032104;28;20525;-80